createdAt,value
2023-01-04T00:00:41.856Z,7.93
2023-01-04T00:04:58.260Z,7.57
2023-01-04T00:09:14.551Z,7.60
2023-01-04T00:13:34.819Z,6.28
2023-01-04T00:17:51.103Z,7.22
2023-01-04T00:22:07.419Z,7.15
2023-01-04T00:26:33.143Z,7.10
2023-01-04T00:30:49.382Z,8.07
2023-01-04T00:35:32.821Z,7.28
2023-01-04T00:44:07.341Z,7.72
2023-01-04T00:48:23.507Z,6.75
2023-01-04T00:52:39.800Z,7.07
2023-01-04T00:56:56.053Z,6.90
2023-01-04T01:01:12.618Z,7.47
2023-01-04T01:05:29.145Z,6.35
2023-01-04T01:09:45.415Z,7.00
2023-01-04T01:14:01.613Z,7.78
2023-01-04T01:18:17.899Z,6.97
2023-01-04T01:22:36.499Z,7.70
2023-01-04T01:26:52.799Z,7.40
2023-01-04T01:31:23.262Z,7.53
2023-01-04T01:35:46.930Z,6.78
2023-01-04T01:40:03.190Z,6.78
2023-01-04T01:44:47.039Z,7.03
2023-01-04T01:49:28.436Z,5.95
2023-01-04T01:53:46.970Z,6.90
2023-01-04T01:58:05.544Z,6.57
2023-01-04T02:02:22.404Z,7.20
2023-01-04T02:06:41.712Z,7.60
2023-01-04T02:10:58.122Z,7.55
2023-01-04T02:15:14.439Z,7.53
2023-01-04T02:20:04.752Z,7.65
2023-01-04T02:24:42.543Z,7.50
2023-01-04T02:29:29.306Z,6.97
2023-01-04T02:33:54.342Z,7.72
2023-01-04T02:38:23.368Z,7.07
2023-01-04T02:43:33.357Z,7.75
2023-01-04T02:48:07.960Z,7.85
2023-01-04T02:52:24.420Z,7.90
2023-01-04T02:57:13.101Z,7.60
2023-01-04T03:02:09.702Z,8.60
2023-01-04T03:06:59.126Z,8.15
2023-01-04T07:25:52.648Z,13.52
2023-01-04T07:30:09.441Z,14.55
2023-01-04T07:34:26.589Z,12.75
2023-01-04T07:38:43.808Z,14.60
2023-01-04T07:43:00.294Z,13.10
2023-01-04T07:47:16.457Z,12.05
2023-01-04T07:51:33.532Z,13.18
2023-01-04T07:55:54.686Z,11.32
2023-01-04T08:00:11.728Z,10.85
2023-01-04T08:04:34.391Z,10.50
2023-01-04T08:08:51.385Z,10.68
2023-01-04T08:13:07.635Z,11.93
2023-01-04T08:17:23.844Z,12.15
2023-01-04T08:21:40.108Z,12.80
2023-01-04T08:25:56.311Z,13.57
2023-01-04T08:30:12.644Z,11.23
2023-01-04T08:34:30.060Z,12.40
2023-01-04T08:39:05.740Z,10.32
2023-01-04T08:43:22.334Z,10.93
2023-01-04T08:47:38.645Z,11.40
2023-01-04T08:51:54.946Z,10.50
2023-01-04T08:56:11.484Z,10.30
2023-01-04T09:00:27.920Z,10.70
2023-01-04T09:04:44.736Z,12.05
2023-01-04T09:09:00.901Z,12.93
2023-01-04T09:13:17.048Z,13.70
2023-01-04T09:17:33.187Z,11.90
2023-01-04T09:21:49.623Z,12.20
2023-01-04T09:26:09.635Z,10.48
2023-01-04T09:30:26.624Z,12.70
2023-01-04T09:34:43.041Z,11.50
2023-01-04T09:39:01.268Z,11.65
2023-01-04T09:43:22.304Z,13.05
2023-01-04T09:47:46.912Z,14.50
2023-01-04T09:52:38.473Z,12.18
2023-01-04T09:56:58.514Z,11.77
2023-01-04T10:01:17.291Z,12.65
2023-01-04T10:05:34.580Z,12.65
2023-01-04T10:09:50.906Z,16.02
2023-01-04T10:14:23.002Z,15.48
2023-01-04T10:19:51.516Z,16.90
2023-01-04T10:23:59.343Z,22.05
2023-01-04T10:28:43.509Z,15.38
2023-01-04T10:33:11.876Z,15.60
2023-01-04T10:37:37.542Z,16.83
2023-01-04T10:42:00.854Z,18.23
2023-01-04T10:46:27.230Z,16.75
2023-01-04T10:50:56.767Z,17.20
2023-01-04T10:55:38.555Z,19.40
2023-01-04T11:00:17.912Z,17.20
2023-01-04T11:04:45.178Z,15.80
2023-01-04T11:09:13.455Z,14.30
2023-01-04T11:13:29.760Z,15.50
2023-01-04T11:17:46.302Z,15.55
2023-01-04T11:22:11.047Z,15.98
2023-01-04T11:26:35.191Z,16.95
2023-01-04T11:31:14.076Z,16.77
2023-01-04T11:35:43.389Z,18.40
2023-01-04T11:40:24.189Z,17.08
2023-01-04T11:44:42.210Z,16.67
2023-01-04T11:48:58.785Z,17.20
2023-01-04T11:53:41.237Z,18.73
2023-01-04T11:58:15.007Z,17.95
2023-01-04T12:07:20.313Z,17.20
2023-01-04T12:11:40.295Z,19.48
2023-01-04T12:16:18.470Z,19.25
2023-01-04T12:20:36.233Z,20.17
2023-01-04T12:25:00.022Z,19.85
2023-01-04T12:29:23.249Z,19.20
2023-01-04T12:33:40.397Z,21.00
2023-01-04T12:37:56.606Z,20.67
2023-01-04T12:42:17.833Z,22.83
2023-01-04T12:47:01.049Z,20.02
2023-01-04T12:51:33.936Z,20.15
2023-01-04T12:55:55.178Z,21.85
2023-01-04T13:00:15.249Z,22.90
2023-01-04T13:04:41.640Z,20.95
2023-01-04T13:08:58.158Z,19.33
2023-01-04T13:13:42.170Z,22.15
2023-01-04T13:17:58.402Z,21.58
2023-01-04T13:22:29.475Z,20.20
2023-01-04T13:26:48.788Z,20.52
2023-01-04T13:31:05.055Z,21.73
2023-01-04T13:35:21.308Z,19.58
2023-01-04T13:39:45.184Z,20.30
2023-01-04T13:44:17.461Z,18.30
2023-01-04T13:48:37.611Z,16.90
2023-01-04T13:53:05.524Z,16.77
2023-01-04T13:57:22.784Z,16.17
2023-01-04T14:01:47.186Z,16.83
2023-01-04T14:06:15.076Z,15.45
2023-01-04T14:10:31.560Z,16.65
2023-01-04T14:14:58.905Z,16.90
2023-01-04T14:19:41.679Z,18.23
2023-01-04T14:23:57.964Z,20.05
2023-01-04T14:28:24.862Z,19.58
2023-01-04T14:32:43.290Z,19.75
2023-01-04T14:37:04.634Z,21.08
2023-01-04T14:41:25.681Z,19.23
2023-01-04T14:45:41.854Z,18.92
2023-01-04T14:49:58.055Z,17.77
2023-01-04T14:54:20.469Z,16.27
2023-01-04T14:58:40.777Z,14.30
2023-01-04T15:02:57.292Z,12.27
2023-01-04T15:07:36.068Z,10.65
2023-01-04T15:11:52.458Z,15.23
2023-01-04T15:16:13.173Z,10.68
2023-01-04T15:20:29.427Z,9.75
2023-01-04T15:24:45.844Z,12.52
2023-01-04T15:29:02.500Z,10.55
2023-01-04T15:33:18.699Z,17.25
2023-01-04T15:37:34.962Z,14.43
2023-01-04T15:42:09.752Z,13.18
2023-01-04T15:46:26.063Z,10.90
2023-01-04T15:50:42.573Z,10.00
2023-01-04T15:54:58.763Z,11.30
2023-01-04T15:59:14.891Z,12.52
2023-01-04T16:03:31.143Z,8.70
2023-01-04T16:07:48.644Z,8.73
2023-01-04T16:12:26.660Z,10.07
2023-01-04T16:16:42.858Z,9.27
2023-01-04T16:21:02.008Z,10.20
2023-01-04T16:25:18.368Z,12.35
2023-01-04T16:29:34.944Z,13.18
2023-01-04T16:33:54.634Z,12.20
2023-01-04T16:38:10.745Z,14.93
2023-01-04T16:42:27.072Z,12.23
2023-01-04T16:46:44.408Z,6.93
2023-01-04T16:51:01.759Z,7.22
2023-01-04T16:55:23.849Z,6.95
2023-01-04T16:59:40.398Z,8.67
2023-01-04T17:03:58.894Z,8.07
2023-01-04T17:08:15.660Z,8.23
2023-01-04T17:12:48.799Z,7.15
2023-01-04T17:21:33.750Z,10.65
2023-01-04T17:25:51.055Z,10.35
2023-01-04T17:30:10.038Z,8.52
2023-01-04T17:34:26.520Z,7.65
2023-01-04T17:38:42.824Z,7.00
2023-01-04T17:42:59.967Z,7.60
2023-01-04T17:47:16.200Z,8.38
2023-01-04T17:51:33.156Z,6.70
2023-01-04T17:55:49.381Z,6.90
2023-01-04T18:00:06.909Z,6.87
2023-01-04T18:04:23.192Z,5.85
2023-01-04T18:08:39.749Z,6.32
2023-01-04T18:12:56.111Z,6.93
2023-01-04T18:17:12.654Z,6.55
2023-01-04T18:21:31.256Z,6.50
2023-01-04T18:25:47.627Z,6.82
2023-01-04T18:30:04.120Z,7.28
2023-01-04T18:34:20.714Z,8.23
2023-01-04T18:38:36.960Z,7.12
2023-01-04T18:42:53.147Z,7.50
2023-01-04T18:47:09.266Z,6.55
2023-01-04T18:51:27.118Z,6.43
2023-01-04T18:55:43.325Z,5.80
2023-01-04T19:00:00.230Z,6.32
2023-01-04T19:04:17.742Z,7.05
2023-01-04T19:08:34.249Z,6.55
2023-01-04T19:12:50.513Z,6.30
2023-01-04T19:17:06.827Z,8.05
2023-01-04T19:21:23.126Z,7.40
2023-01-04T19:25:40.366Z,7.60
2023-01-04T19:29:56.534Z,7.25
2023-01-04T19:34:12.699Z,7.50
2023-01-04T19:38:28.868Z,8.18
2023-01-04T19:42:45.021Z,7.45
2023-01-04T19:47:01.219Z,6.75
2023-01-04T19:51:18.084Z,7.95
2023-01-04T19:55:34.513Z,8.18
2023-01-04T19:59:51.172Z,9.15
2023-01-04T20:04:07.331Z,8.40
2023-01-04T20:08:23.609Z,8.32
2023-01-04T20:12:39.839Z,8.13
2023-01-04T20:16:56.088Z,7.60
2023-01-04T20:21:14.252Z,8.65
2023-01-04T20:25:30.474Z,8.68
2023-01-04T20:29:46.740Z,8.23
2023-01-04T20:34:02.961Z,8.07
2023-01-04T20:38:19.204Z,7.65
2023-01-04T20:42:54.117Z,8.82
2023-01-04T20:47:10.363Z,8.45
2023-01-04T20:51:28.290Z,9.05
2023-01-04T20:55:44.548Z,7.47
2023-01-04T21:00:00.772Z,7.25
2023-01-04T21:04:17.950Z,8.10
2023-01-04T21:08:35.799Z,9.02
2023-01-04T21:12:51.950Z,7.55
2023-01-04T21:17:08.106Z,7.75
2023-01-04T21:21:24.323Z,7.37
2023-01-04T21:25:41.420Z,7.15
2023-01-04T21:29:57.681Z,7.28
2023-01-04T21:34:18.259Z,6.90
2023-01-04T21:38:37.125Z,7.37
2023-01-04T21:42:53.470Z,7.72
2023-01-04T21:47:09.629Z,8.55
2023-01-04T21:51:25.999Z,9.05
2023-01-04T21:55:42.200Z,8.40
2023-01-04T21:59:58.405Z,8.45
2023-01-04T22:04:14.619Z,7.35
2023-01-04T22:08:31.148Z,6.95
2023-01-04T22:12:49.941Z,7.55
2023-01-04T22:17:06.140Z,14.07
2023-01-04T22:21:26.727Z,10.75
2023-01-04T22:25:42.976Z,9.52
2023-01-04T22:29:59.134Z,11.52
2023-01-04T22:34:17.140Z,15.88
2023-01-04T22:38:38.343Z,16.27
2023-01-04T22:42:54.553Z,15.50
2023-01-04T22:47:10.825Z,11.70
2023-01-04T22:51:27.784Z,10.45
2023-01-04T22:56:17.487Z,9.40
2023-01-04T23:00:20.355Z,9.45
2023-01-04T23:04:36.509Z,9.68
2023-01-04T23:09:01.215Z,9.70
2023-01-04T23:13:17.466Z,9.68
2023-01-04T23:17:33.701Z,10.50
2023-01-04T23:21:49.896Z,11.98
2023-01-04T23:26:07.860Z,10.80
2023-01-04T23:30:24.062Z,13.52
2023-01-04T23:34:40.232Z,11.75
2023-01-04T23:38:59.122Z,10.55
2023-01-04T23:43:15.328Z,11.30
2023-01-04T23:47:31.452Z,10.63
2023-01-04T23:51:47.695Z,11.27
2023-01-04T23:56:13.511Z,11.45
